Time;durP1;ratioP1;P1;durP2;ratioP2;P2;SDS_P1;SDS_P2;PMS_P1;PMS_P2;Temp;Humidity;BMP_temperature;BMP_pressure;BME280_temperature;BME280_humidity;BME280_pressure;Samples;Min_cycle;Max_cycle;Signal;HPM_P1;HPM_P2
2023/06/11 00:01:18;;;;;;;5.53;5.00;;;24.50;52.40;;;;;;5052335;28;20583;-74
2023/06/11 00:03:52;;;;;;;5.70;5.10;;;24.50;52.60;;;;;;5068814;28;20603;-75
2023/06/11 00:06:23;;;;;;;4.83;4.43;;;24.40;52.50;;;;;;5053852;28;20918;-75
2023/06/11 00:08:53;;;;;;;4.80;4.40;;;24.40;52.50;;;;;;5063139;28;20636;-75
2023/06/11 00:11:20;;;;;;;5.57;4.77;;;24.30;53.60;;;;;;5023812;28;20595;-75
2023/06/11 00:13:45;;;;;;;5.27;4.67;;;24.30;53.00;;;;;;5048836;28;20636;-76
2023/06/11 00:16:13;;;;;;;5.43;4.33;;;24.30;53.60;;;;;;5015862;28;20589;-76
2023/06/11 00:18:42;;;;;;;5.30;4.80;;;24.30;53.20;;;;;;5015448;28;20220;-75
2023/06/11 00:21:09;;;;;;;6.00;4.53;;;24.30;53.20;;;;;;5033210;28;20567;-75
2023/06/11 00:23:36;;;;;;;5.13;4.50;;;24.20;53.60;;;;;;5031797;28;20612;-76
2023/06/11 00:26:08;;;;;;;6.10;5.50;;;24.20;53.60;;;;;;5048937;28;20940;-75
2023/06/11 00:28:35;;;;;;;6.80;4.33;;;24.20;53.70;;;;;;5048310;28;20641;-76
2023/06/11 00:31:03;;;;;;;5.13;4.57;;;24.20;53.70;;;;;;5015227;28;20592;-75
2023/06/11 00:33:29;;;;;;;4.60;4.20;;;24.20;53.80;;;;;;5031902;28;20790;-75
2023/06/11 00:35:54;;;;;;;5.60;5.10;;;24.10;53.90;;;;;;5036215;28;20686;-75
2023/06/11 00:38:20;;;;;;;5.13;4.70;;;24.10;54.30;;;;;;5020345;28;20581;-75
2023/06/11 00:40:47;;;;;;;6.03;4.40;;;24.10;54.40;;;;;;4995255;28;20182;-75
2023/06/11 00:43:13;;;;;;;4.83;4.10;;;24.10;54.50;;;;;;5011887;28;20221;-75
2023/06/11 00:45:39;;;;;;;4.20;3.80;;;24.10;54.50;;;;;;5012961;28;20669;-75
2023/06/11 00:48:05;;;;;;;5.30;4.80;;;24.00;54.40;;;;;;5012098;28;20261;-75
2023/06/11 00:50:45;;;;;;;5.53;4.40;;;24.00;55.70;;;;;;5011486;28;20182;-75
2023/06/11 00:53:12;;;;;;;4.77;4.30;;;24.00;55.10;;;;;;5011848;28;20640;-75
2023/06/11 00:55:38;;;;;;;4.53;4.13;;;24.00;55.30;;;;;;5028884;28;20573;-73
2023/06/11 00:58:04;;;;;;;5.27;4.60;;;24.00;55.10;;;;;;5012482;28;20647;-74
2023/06/11 01:00:30;;;;;;;4.90;4.40;;;23.90;55.30;;;;;;4978715;28;20573;-74
2023/06/11 01:03:07;;;;;;;6.13;5.53;;;23.90;56.30;;;;;;5011425;28;20695;-74
2023/06/11 01:05:43;;;;;;;4.60;4.20;;;23.90;55.90;;;;;;5017408;28;21136;-75
2023/06/11 01:08:13;;;;;;;5.10;4.60;;;23.90;55.90;;;;;;5030020;28;20619;-74
2023/06/11 01:10:41;;;;;;;5.93;5.33;;;23.80;55.80;;;;;;5014936;28;20672;-74
2023/06/11 01:13:06;;;;;;;5.33;4.83;;;23.80;56.50;;;;;;5031910;28;20638;-74
2023/06/11 01:15:32;;;;;;;5.73;4.87;;;23.80;56.10;;;;;;5031106;28;20576;-74
2023/06/11 01:18:07;;;;;;;5.33;4.30;;;23.80;56.60;;;;;;5032395;28;20533;-75
2023/06/11 01:20:39;;;;;;;6.13;5.53;;;23.70;56.80;;;;;;5014553;28;20720;-74
2023/06/11 01:23:31;;;;;;;4.80;4.40;;;23.70;56.70;;;;;;5014289;28;20607;-74
2023/06/11 01:26:16;;;;;;;5.77;4.27;;;23.70;56.90;;;;;;5029927;28;20592;-75
2023/06/11 01:28:46;;;;;;;6.63;4.87;;;23.70;57.10;;;;;;5027527;28;20597;-75
2023/06/11 01:31:15;;;;;;;4.10;3.80;;;23.60;57.20;;;;;;5040373;28;20624;-75
2023/06/11 01:33:44;;;;;;;4.30;3.90;;;23.60;57.10;;;;;;5046888;28;21038;-75
2023/06/11 01:36:14;;;;;;;4.77;4.30;;;23.60;57.60;;;;;;5052187;28;20924;-75
2023/06/11 01:38:44;;;;;;;4.50;4.10;;;23.60;57.60;;;;;;5033675;28;20675;-75
2023/06/11 01:41:27;;;;;;;4.80;4.40;;;23.60;57.50;;;;;;5033789;28;20611;-74
2023/06/11 01:43:54;;;;;;;4.93;3.97;;;23.50;57.30;;;;;;5061029;28;20616;-75
2023/06/11 01:46:20;;;;;;;4.40;4.00;;;23.50;57.60;;;;;;5015677;28;20571;-75
2023/06/11 01:48:46;;;;;;;4.30;3.90;;;23.50;58.10;;;;;;5050415;28;21000;-75
2023/06/11 01:51:14;;;;;;;5.63;4.40;;;23.50;58.00;;;;;;5033376;28;20730;-74
2023/06/11 01:53:42;;;;;;;5.80;4.70;;;23.50;58.10;;;;;;5033595;28;20238;-74
2023/06/11 01:56:07;;;;;;;5.20;4.80;;;23.40;58.30;;;;;;5049992;28;20584;-75
2023/06/11 01:58:33;;;;;;;4.60;4.20;;;23.30;58.40;;;;;;5051748;28;20570;-75
2023/06/11 02:00:59;;;;;;;4.73;4.10;;;23.30;58.90;;;;;;5026864;28;20170;-75
2023/06/11 02:03:25;;;;;;;5.87;4.90;;;23.30;58.80;;;;;;5048528;28;20610;-75
2023/06/11 02:05:51;;;;;;;4.70;4.20;;;23.30;60.00;;;;;;5033372;28;20234;-75
2023/06/11 02:08:17;;;;;;;6.30;4.40;;;23.20;59.70;;;;;;5033486;28;20580;-74
2023/06/11 02:10:44;;;;;;;4.70;4.30;;;23.20;60.60;;;;;;5049469;28;20603;-75
2023/06/11 02:13:09;;;;;;;4.30;3.90;;;23.20;60.00;;;;;;5032844;28;20212;-75
2023/06/11 02:15:36;;;;;;;5.43;4.93;;;23.20;60.30;;;;;;5032785;28;20580;-75
2023/06/11 02:18:02;;;;;;;5.90;4.97;;;23.10;61.20;;;;;;5049982;28;20572;-75
2023/06/11 02:20:27;;;;;;;4.50;4.10;;;23.10;61.40;;;;;;5049618;28;20578;-75
2023/06/11 02:22:53;;;;;;;5.03;4.50;;;23.10;61.40;;;;;;5032765;28;21196;-75
2023/06/11 02:25:19;;;;;;;4.03;3.73;;;23.10;62.50;;;;;;5049963;28;20168;-75
2023/06/11 02:27:47;;;;;;;4.17;3.87;;;23.10;62.40;;;;;;5032638;28;20680;-75
2023/06/11 02:30:13;;;;;;;6.63;3.70;;;23.10;62.90;;;;;;5057215;28;20266;-75
2023/06/11 02:32:40;;;;;;;5.00;4.50;;;23.10;62.90;;;;;;5023167;28;20656;-75
2023/06/11 02:35:08;;;;;;;4.83;4.33;;;23.10;63.40;;;;;;5011231;28;20731;-75
2023/06/11 02:37:33;;;;;;;5.37;4.13;;;23.10;63.60;;;;;;5034505;28;21006;-75
2023/06/11 02:39:59;;;;;;;4.43;4.03;;;23.10;63.90;;;;;;5029641;28;20675;-75
2023/06/11 02:42:25;;;;;;;5.77;4.60;;;23.00;64.90;;;;;;5029099;28;20296;-75
2023/06/11 02:44:51;;;;;;;5.07;4.57;;;23.00;66.00;;;;;;5013302;28;20201;-75
2023/06/11 02:47:16;;;;;;;4.33;3.97;;;23.00;66.10;;;;;;5046353;28;20177;-75
2023/06/11 02:49:44;;;;;;;5.80;4.30;;;23.00;66.30;;;;;;5012991;28;20201;-74
2023/06/11 02:52:09;;;;;;;4.63;4.23;;;23.00;66.00;;;;;;5029335;28;20688;-74
2023/06/11 02:54:35;;;;;;;5.20;4.70;;;22.90;66.20;;;;;;5012808;28;20748;-74
2023/06/11 02:57:01;;;;;;;5.80;5.30;;;22.90;66.80;;;;;;5029768;28;20231;-74
2023/06/11 02:59:26;;;;;;;6.60;4.67;;;22.80;68.10;;;;;;5012792;28;20228;-74
2023/06/11 03:01:53;;;;;;;4.47;3.83;;;22.80;68.50;;;;;;5011951;28;20514;-74
2023/06/11 03:04:19;;;;;;;4.37;3.97;;;22.80;68.00;;;;;;5017456;28;20180;-75
2023/06/11 03:06:45;;;;;;;4.60;4.17;;;22.80;68.20;;;;;;4993550;28;20585;-74
2023/06/11 03:09:11;;;;;;;4.63;4.17;;;22.80;69.00;;;;;;5009312;28;20605;-75
2023/06/11 03:11:37;;;;;;;6.00;4.27;;;22.70;69.20;;;;;;4992782;28;20578;-75
2023/06/11 03:14:03;;;;;;;5.70;4.37;;;22.70;69.60;;;;;;5009503;28;20264;-75
2023/06/11 03:16:28;;;;;;;5.40;5.00;;;22.70;69.80;;;;;;5009337;28;20635;-74
2023/06/11 03:18:54;;;;;;;4.57;3.70;;;22.70;71.70;;;;;;5010983;28;20173;-74
2023/06/11 03:21:20;;;;;;;4.57;4.17;;;22.60;72.80;;;;;;5008851;28;20170;-74
2023/06/11 03:23:46;;;;;;;4.40;4.07;;;22.70;73.00;;;;;;4993254;28;20609;-74
2023/06/11 03:26:12;;;;;;;5.60;5.10;;;22.60;72.40;;;;;;4995603;28;21163;-74
2023/06/11 03:28:42;;;;;;;6.90;5.20;;;22.60;73.10;;;;;;5013212;28;20182;-74
2023/06/11 03:31:08;;;;;;;5.43;4.93;;;22.60;73.40;;;;;;5016080;28;21253;-74
2023/06/11 03:33:34;;;;;;;5.77;5.03;;;22.60;73.80;;;;;;5041233;28;20197;-74
2023/06/11 03:36:00;;;;;;;5.00;4.50;;;22.60;75.70;;;;;;5039297;28;20226;-74
2023/06/11 03:38:26;;;;;;;4.23;3.83;;;22.60;75.30;;;;;;5036223;28;20586;-75
2023/06/11 03:40:52;;;;;;;5.87;5.10;;;22.60;75.30;;;;;;5035885;28;20583;-74
2023/06/11 03:43:23;;;;;;;6.07;4.60;;;22.60;77.10;;;;;;5052371;28;20646;-73
2023/06/11 03:45:48;;;;;;;6.70;4.53;;;22.60;76.40;;;;;;5036383;28;20580;-74
2023/06/11 03:48:15;;;;;;;4.97;4.57;;;22.60;76.70;;;;;;5035693;28;20661;-76
2023/06/11 03:50:41;;;;;;;7.43;4.40;;;22.60;77.00;;;;;;5052724;28;20627;-75
2023/06/11 03:53:07;;;;;;;6.17;5.10;;;22.60;77.20;;;;;;5052256;28;20627;-76
2023/06/11 03:55:33;;;;;;;5.83;4.77;;;22.60;77.40;;;;;;5052734;28;20670;-76
2023/06/11 03:57:58;;;;;;;4.50;4.13;;;22.60;78.60;;;;;;5052117;28;20729;-75
2023/06/11 04:00:26;;;;;;;7.20;5.33;;;22.60;78.40;;;;;;5052603;28;20165;-76
2023/06/11 04:02:54;;;;;;;4.90;4.40;;;22.60;79.40;;;;;;5053360;28;20203;-75
2023/06/11 04:05:20;;;;;;;5.13;4.63;;;22.60;79.20;;;;;;5069290;28;20591;-76
2023/06/11 04:07:53;;;;;;;5.57;5.00;;;22.60;79.90;;;;;;5052539;28;21006;-76
2023/06/11 04:10:18;;;;;;;5.17;4.67;;;22.60;80.10;;;;;;5035075;28;21245;-75
2023/06/11 04:12:45;;;;;;;4.50;4.10;;;22.70;80.50;;;;;;5035576;28;20651;-76
2023/06/11 04:15:12;;;;;;;4.23;3.70;;;22.70;80.90;;;;;;5052134;28;20251;-76
2023/06/11 04:17:39;;;;;;;4.73;4.33;;;22.70;80.80;;;;;;5052383;28;20955;-76
2023/06/11 04:20:05;;;;;;;6.97;4.90;;;22.70;81.10;;;;;;5035196;28;20629;-76
2023/06/11 04:22:31;;;;;;;8.87;6.30;;;22.70;81.90;;;;;;5068905;28;20681;-76
2023/06/11 04:24:58;;;;;;;5.97;5.37;;;22.70;82.10;;;;;;5034958;28;20591;-75
2023/06/11 04:27:23;;;;;;;5.63;4.33;;;22.80;83.20;;;;;;5027822;28;20617;-75
2023/06/11 04:29:52;;;;;;;4.87;4.27;;;23.00;83.90;;;;;;5011704;28;20191;-75
2023/06/11 04:32:20;;;;;;;4.83;4.30;;;23.10;84.10;;;;;;5012068;28;20245;-75
2023/06/11 04:34:48;;;;;;;4.93;4.40;;;23.20;84.20;;;;;;5012207;28;20577;-75
2023/06/11 04:37:16;;;;;;;4.93;4.53;;;23.20;84.10;;;;;;5012810;28;20613;-76
2023/06/11 04:39:42;;;;;;;6.33;5.10;;;23.30;85.00;;;;;;5028751;28;21036;-75
2023/06/11 04:42:08;;;;;;;5.80;4.90;;;23.40;85.30;;;;;;5010864;28;20735;-76
2023/06/11 04:44:36;;;;;;;5.00;4.60;;;23.40;84.70;;;;;;5028794;28;20178;-76
2023/06/11 04:47:05;;;;;;;4.97;4.57;;;23.50;85.00;;;;;;5043772;28;20205;-76
2023/06/11 04:49:32;;;;;;;4.53;4.13;;;23.50;84.90;;;;;;5015161;28;20603;-75
2023/06/11 04:51:59;;;;;;;7.73;4.40;;;23.60;84.90;;;;;;5030962;28;20674;-75
2023/06/11 04:54:26;;;;;;;5.10;4.70;;;23.60;85.60;;;;;;5031710;28;20630;-76
2023/06/11 04:56:52;;;;;;;5.17;4.70;;;23.70;85.30;;;;;;5014662;28;20588;-75
2023/06/11 04:59:18;;;;;;;5.23;4.73;;;23.80;85.40;;;;;;5015267;28;20743;-75
2023/06/11 05:01:50;;;;;;;4.87;4.33;;;23.80;85.50;;;;;;5014362;28;20638;-76
2023/06/11 05:04:18;;;;;;;5.47;4.43;;;23.90;85.40;;;;;;5031517;28;20587;-76
2023/06/11 05:06:47;;;;;;;4.97;4.47;;;24.00;85.40;;;;;;5014945;28;21159;-76
2023/06/11 05:09:17;;;;;;;5.27;4.50;;;24.10;86.20;;;;;;5030937;28;20169;-76
2023/06/11 05:11:44;;;;;;;5.70;4.40;;;24.20;85.60;;;;;;5047361;28;20650;-76
2023/06/11 05:14:14;;;;;;;5.60;5.03;;;24.30;85.80;;;;;;5014499;28;20584;-76
2023/06/11 05:16:40;;;;;;;4.77;4.37;;;24.50;85.70;;;;;;5031320;28;20944;-76
2023/06/11 05:19:06;;;;;;;4.93;4.40;;;24.70;85.10;;;;;;5030996;28;20571;-76
2023/06/11 05:21:34;;;;;;;4.57;4.17;;;24.90;84.80;;;;;;5014239;28;20676;-76
2023/06/11 05:24:07;;;;;;;5.37;4.23;;;24.90;84.60;;;;;;5030343;28;20620;-76
2023/06/11 05:26:36;;;;;;;5.23;4.80;;;25.10;84.60;;;;;;5031075;28;20580;-76
2023/06/11 05:29:04;;;;;;;4.33;3.83;;;25.20;84.00;;;;;;5014324;28;20568;-76
2023/06/11 05:31:31;;;;;;;4.40;4.00;;;25.30;83.60;;;;;;5030073;28;20575;-76
2023/06/11 05:33:57;;;;;;;4.80;4.40;;;25.30;83.20;;;;;;5030890;28;20614;-76
2023/06/11 05:36:26;;;;;;;4.23;3.83;;;25.40;82.70;;;;;;5039200;28;21047;-76
2023/06/11 05:38:52;;;;;;;4.23;3.83;;;25.40;83.40;;;;;;5067479;28;20568;-76
2023/06/11 05:41:18;;;;;;;4.60;4.20;;;25.40;82.20;;;;;;5066629;28;20617;-76
2023/06/11 05:43:45;;;;;;;4.23;3.90;;;25.40;82.10;;;;;;5050529;28;20734;-76
2023/06/11 05:46:15;;;;;;;4.37;3.97;;;25.50;82.10;;;;;;5033549;28;20576;-76
2023/06/11 05:48:43;;;;;;;6.67;4.67;;;25.60;82.00;;;;;;5066494;28;20590;-76
2023/06/11 05:51:10;;;;;;;5.67;3.97;;;25.70;82.00;;;;;;5049836;28;20580;-76
2023/06/11 05:53:36;;;;;;;4.57;4.17;;;25.80;82.10;;;;;;5050404;28;20642;-76
2023/06/11 05:56:04;;;;;;;5.33;4.83;;;26.10;82.90;;;;;;5033858;28;20695;-76
2023/06/11 05:58:33;;;;;;;4.00;3.70;;;26.70;83.90;;;;;;5050182;28;20929;-76
2023/06/11 06:01:03;;;;;;;4.30;3.90;;;27.40;84.20;;;;;;5051377;28;20564;-77
2023/06/11 06:03:33;;;;;;;4.37;3.97;;;28.10;82.50;;;;;;5053661;28;20624;-76
2023/06/11 06:06:03;;;;;;;4.60;4.20;;;28.90;81.00;;;;;;5038705;28;20584;-76
2023/06/11 06:08:30;;;;;;;3.60;3.30;;;29.50;78.00;;;;;;5026093;28;20607;-76
2023/06/11 06:10:57;;;;;;;3.53;3.23;;;30.20;76.70;;;;;;5018498;28;20589;-76
2023/06/11 06:13:25;;;;;;;5.50;3.37;;;30.80;73.60;;;;;;5029512;28;20648;-77
2023/06/11 06:15:52;;;;;;;4.60;3.20;;;31.20;71.60;;;;;;5013880;28;20580;-77
2023/06/11 06:18:19;;;;;;;4.00;3.00;;;31.70;70.60;;;;;;5046277;28;20585;-77
2023/06/11 06:20:46;;;;;;;4.80;3.60;;;32.40;68.60;;;;;;5009594;28;20615;-75
2023/06/11 06:23:12;;;;;;;4.50;3.20;;;33.10;68.40;;;;;;5010077;28;20619;-75
2023/06/11 06:25:41;;;;;;;3.63;3.30;;;33.80;65.40;;;;;;5026360;28;20655;-75
2023/06/11 06:28:09;;;;;;;3.60;3.30;;;34.50;64.70;;;;;;5026137;28;21002;-77
2023/06/11 06:30:38;;;;;;;3.50;3.10;;;35.10;61.00;;;;;;5009616;28;20582;-76
2023/06/11 06:33:04;;;;;;;4.27;3.50;;;35.30;58.70;;;;;;5026181;28;20691;-77
2023/06/11 06:35:33;;;;;;;3.57;3.27;;;35.70;58.40;;;;;;5036326;28;20577;-77
2023/06/11 06:38:01;;;;;;;2.73;2.50;;;36.40;58.00;;;;;;5049972;28;20176;-76
2023/06/11 06:40:27;;;;;;;5.43;3.20;;;37.00;57.10;;;;;;5032645;28;20571;-77
2023/06/11 06:42:53;;;;;;;3.40;3.10;;;37.60;54.50;;;;;;5049612;28;20676;-79
2023/06/11 06:45:26;;;;;;;4.03;2.70;;;37.70;51.90;;;;;;5049745;28;20586;-79
2023/06/11 06:47:53;;;;;;;3.47;3.00;;;37.40;49.50;;;;;;5049940;28;21135;-79
2023/06/11 06:50:19;;;;;;;3.03;2.70;;;37.40;49.90;;;;;;5049530;28;20579;-79
2023/06/11 06:52:45;;;;;;;3.53;2.90;;;37.40;49.30;;;;;;5033319;28;20227;-79
2023/06/11 06:55:11;;;;;;;4.27;3.87;;;37.60;48.40;;;;;;5033200;28;20574;-79
2023/06/11 06:57:36;;;;;;;4.10;3.40;;;37.60;46.90;;;;;;5032425;28;20588;-80
2023/06/11 07:00:04;;;;;;;3.33;3.03;;;37.40;46.00;;;;;;5050591;28;20177;-80
2023/06/11 07:02:32;;;;;;;4.00;3.70;;;37.10;45.60;;;;;;5053282;28;20211;-79
2023/06/11 07:04:57;;;;;;;3.33;2.87;;;36.90;45.30;;;;;;5053861;28;20610;-79
2023/06/11 07:07:24;;;;;;;3.03;2.63;;;36.90;45.60;;;;;;5053623;28;20618;-79
2023/06/11 07:09:51;;;;;;;4.30;3.90;;;37.00;46.50;;;;;;5053628;28;20173;-78
2023/06/11 07:12:18;;;;;;;3.23;2.90;;;37.10;45.50;;;;;;5052797;28;20642;-78
2023/06/11 07:14:44;;;;;;;3.70;3.20;;;37.30;46.10;;;;;;5053631;28;20670;-79
2023/06/11 07:17:10;;;;;;;3.37;2.67;;;37.70;46.40;;;;;;5037772;28;20601;-79
2023/06/11 07:19:36;;;;;;;3.90;3.20;;;37.90;44.80;;;;;;5026632;28;20674;-78
2023/06/11 07:22:02;;;;;;;3.87;3.50;;;37.70;42.60;;;;;;5032999;28;20612;-78
2023/06/11 07:24:31;;;;;;;3.50;3.20;;;37.20;42.40;;;;;;5040900;28;20176;-78
2023/06/11 07:26:57;;;;;;;4.10;3.17;;;37.10;43.10;;;;;;5053955;28;20574;-78
2023/06/11 07:29:25;;;;;;;3.50;3.20;;;37.10;43.20;;;;;;5053769;28;20180;-78
2023/06/11 07:31:51;;;;;;;3.93;3.30;;;37.00;43.40;;;;;;5036044;28;20571;-78
2023/06/11 07:34:16;;;;;;;3.30;3.00;;;37.20;43.60;;;;;;5035889;28;20907;-78
2023/06/11 07:36:43;;;;;;;3.13;2.43;;;37.20;42.80;;;;;;5026293;28;20260;-78
2023/06/11 07:39:13;;;;;;;3.03;2.80;;;37.10;43.00;;;;;;5049581;28;20587;-79
2023/06/11 07:41:42;;;;;;;3.20;2.90;;;37.20;43.60;;;;;;5016406;28;20584;-79
2023/06/11 07:44:09;;;;;;;4.40;2.73;;;37.30;42.30;;;;;;5033150;28;20574;-78
2023/06/11 07:46:37;;;;;;;3.27;2.97;;;37.40;42.80;;;;;;5016501;28;20583;-79
2023/06/11 07:49:04;;;;;;;3.50;3.20;;;37.40;42.70;;;;;;5032934;28;20576;-79
2023/06/11 07:51:31;;;;;;;3.20;2.90;;;37.70;42.10;;;;;;5015633;28;20591;-78
2023/06/11 07:54:02;;;;;;;3.30;2.97;;;37.70;42.00;;;;;;5033043;28;20214;-78
2023/06/11 07:56:28;;;;;;;3.07;2.83;;;37.80;42.40;;;;;;5033788;28;20604;-75
2023/06/11 07:58:54;;;;;;;3.67;2.63;;;37.90;41.70;;;;;;5032768;28;20612;-75
2023/06/11 08:01:20;;;;;;;3.70;3.07;;;37.80;41.10;;;;;;5032038;28;20796;-75
2023/06/11 08:03:46;;;;;;;3.67;3.27;;;37.70;41.20;;;;;;5031964;28;20695;-76
2023/06/11 08:06:11;;;;;;;2.87;2.63;;;37.60;41.40;;;;;;5031021;28;20224;-75
2023/06/11 08:08:37;;;;;;;3.13;2.80;;;37.70;41.40;;;;;;5032302;28;20188;-75
2023/06/11 08:11:03;;;;;;;3.40;3.10;;;37.90;41.40;;;;;;5031566;28;20504;-75
2023/06/11 08:13:30;;;;;;;3.83;3.20;;;38.00;40.80;;;;;;5036703;28;20298;-75
2023/06/11 08:15:56;;;;;;;3.10;2.80;;;37.80;40.40;;;;;;5017210;28;20178;-75
2023/06/11 08:18:21;;;;;;;5.10;2.63;;;37.60;40.40;;;;;;5031103;28;20982;-76
2023/06/11 08:20:48;;;;;;;3.17;2.90;;;37.50;40.70;;;;;;5015481;28;20823;-76
2023/06/11 08:23:14;;;;;;;4.70;2.50;;;37.70;41.00;;;;;;5031563;28;20201;-75
2023/06/11 08:25:40;;;;;;;2.83;2.63;;;37.80;41.00;;;;;;5048754;28;20942;-75
2023/06/11 08:28:06;;;;;;;3.03;2.80;;;37.80;40.30;;;;;;5048682;28;20529;-75
2023/06/11 08:30:32;;;;;;;3.03;2.73;;;37.90;40.40;;;;;;5031765;28;20581;-75
2023/06/11 08:32:57;;;;;;;3.30;3.00;;;37.90;40.20;;;;;;5033005;28;20662;-75
2023/06/11 08:35:23;;;;;;;2.50;2.30;;;37.90;40.30;;;;;;5031614;28;20166;-75
2023/06/11 08:37:49;;;;;;;3.03;2.73;;;38.10;40.40;;;;;;5051869;28;20177;-75
2023/06/11 08:40:15;;;;;;;3.63;2.73;;;38.10;40.20;;;;;;5051215;28;20636;-75
2023/06/11 08:42:41;;;;;;;3.23;2.77;;;38.30;40.20;;;;;;5051108;28;20255;-75
2023/06/11 08:45:07;;;;;;;3.10;2.70;;;38.50;40.20;;;;;;5052541;28;20603;-75
2023/06/11 08:47:37;;;;;;;2.17;1.97;;;38.70;39.90;;;;;;5051745;28;20230;-75
2023/06/11 08:50:03;;;;;;;3.00;2.50;;;38.80;39.70;;;;;;5048790;28;20575;-75
2023/06/11 08:52:33;;;;;;;2.50;2.30;;;39.10;39.50;;;;;;5032566;28;20670;-75
2023/06/11 08:54:59;;;;;;;5.53;2.37;;;39.30;39.60;;;;;;5031704;28;20587;-75
2023/06/11 08:57:25;;;;;;;3.63;2.63;;;39.80;39.30;;;;;;5032287;28;20920;-75
2023/06/11 08:59:51;;;;;;;3.53;2.53;;;40.10;39.10;;;;;;5031327;28;20176;-75
2023/06/11 09:02:17;;;;;;;2.83;2.63;;;40.30;38.40;;;;;;5031790;28;20668;-75
2023/06/11 09:04:44;;;;;;;3.60;3.30;;;40.40;37.90;;;;;;5031370;28;20185;-75
2023/06/11 09:07:10;;;;;;;2.50;2.30;;;40.30;37.00;;;;;;5014272;28;20587;-75
2023/06/11 09:09:35;;;;;;;2.77;2.27;;;40.30;37.20;;;;;;5030982;28;20612;-75
2023/06/11 09:12:08;;;;;;;2.73;2.47;;;40.30;38.40;;;;;;5029967;28;21419;-75
2023/06/11 09:14:33;;;;;;;2.53;2.33;;;40.50;36.40;;;;;;5048404;22;20692;-76
2023/06/11 09:16:59;;;;;;;2.60;2.40;;;40.20;36.20;;;;;;5044092;28;20665;-76
2023/06/11 09:19:53;;;;;;;3.90;2.90;;;39.90;35.90;;;;;;5033740;28;20545;-77
2023/06/11 09:22:26;;;;;;;2.47;2.20;;;40.00;36.30;;;;;;5034125;28;20215;-78
2023/06/11 09:24:52;;;;;;;2.27;2.07;;;39.80;35.50;;;;;;5027512;28;21398;-78
2023/06/11 09:27:20;;;;;;;3.30;2.70;;;39.60;35.60;;;;;;4978725;28;20688;-77
2023/06/11 09:29:46;;;;;;;3.80;2.40;;;39.30;34.90;;;;;;5012039;28;20232;-77
2023/06/11 09:32:12;;;;;;;2.97;2.03;;;39.20;35.70;;;;;;5012724;28;20625;-79
2023/06/11 09:34:40;;;;;;;2.50;2.30;;;39.20;35.60;;;;;;4994100;28;20198;-77
2023/06/11 09:37:10;;;;;;;2.20;2.00;;;39.10;35.10;;;;;;5010207;28;20595;-78
2023/06/11 09:39:36;;;;;;;2.50;2.20;;;38.80;35.00;;;;;;5032840;28;20580;-77
2023/06/11 09:42:02;;;;;;;2.63;2.43;;;38.60;35.40;;;;;;5032245;28;21189;-78
2023/06/11 09:44:31;;;;;;;2.70;2.50;;;38.50;35.40;;;;;;5031985;28;20221;-77
2023/06/11 09:46:58;;;;;;;2.87;2.57;;;38.40;35.40;;;;;;5032375;28;20568;-78
2023/06/11 09:49:24;;;;;;;2.83;2.40;;;38.30;35.60;;;;;;5031932;28;20684;-77
2023/06/11 09:51:52;;;;;;;3.93;2.80;;;38.30;35.60;;;;;;4997371;28;20584;-79
2023/06/11 09:54:20;;;;;;;3.80;2.17;;;38.40;35.60;;;;;;5014266;28;20608;-78
2023/06/11 09:56:47;;;;;;;3.70;2.47;;;38.60;36.00;;;;;;5031969;28;20573;-80
2023/06/11 09:59:16;;;;;;;2.90;2.50;;;38.90;36.00;;;;;;5013932;28;20573;-78
2023/06/11 10:01:47;;;;;;;2.90;2.57;;;39.40;35.70;;;;;;5031532;28;21163;-79
2023/06/11 10:04:12;;;;;;;2.63;1.83;;;39.60;35.40;;;;;;5014076;28;21349;-79
2023/06/11 10:06:46;;;;;;;3.87;2.67;;;39.60;35.30;;;;;;5008901;28;20617;-79
2023/06/11 10:09:14;;;;;;;3.07;2.87;;;39.40;33.80;;;;;;4996076;28;20178;-80
2023/06/11 10:11:40;;;;;;;2.50;2.30;;;39.10;33.00;;;;;;5012877;28;20676;-78
2023/06/11 10:14:20;;;;;;;3.67;2.37;;;38.90;33.30;;;;;;4996650;28;20628;-78
2023/06/11 10:16:49;;;;;;;3.53;2.43;;;38.80;33.10;;;;;;4994751;28;20611;-79
2023/06/11 10:19:16;;;;;;;2.83;2.30;;;38.70;33.80;;;;;;5009985;28;20585;-79
2023/06/11 10:21:44;;;;;;;3.53;2.67;;;39.10;34.40;;;;;;4994387;28;21052;-79
2023/06/11 10:24:39;;;;;;;2.87;2.63;;;39.40;34.20;;;;;;5011503;28;20612;-78
2023/06/11 10:27:14;;;;;;;3.10;2.80;;;39.50;32.70;;;;;;4986303;28;20655;-79
2023/06/11 10:29:47;;;;;;;4.13;2.57;;;39.30;31.60;;;;;;4978186;28;21287;-79
2023/06/11 10:32:17;;;;;;;3.23;2.50;;;39.20;30.50;;;;;;4994949;28;20584;-79
2023/06/11 10:34:58;;;;;;;2.60;2.27;;;38.90;30.40;;;;;;5003582;28;20605;-79
2023/06/11 10:37:33;;;;;;;3.10;2.23;;;38.40;30.10;;;;;;5030679;28;20580;-78
2023/06/11 10:39:59;;;;;;;5.20;2.80;;;38.20;30.30;;;;;;5050082;28;20594;-79
2023/06/11 10:42:27;;;;;;;2.40;2.20;;;38.00;30.90;;;;;;5051503;28;20615;-79
2023/06/11 10:44:58;;;;;;;3.37;2.37;;;38.00;30.70;;;;;;5027421;28;20655;-79
2023/06/11 10:47:24;;;;;;;4.20;3.13;;;38.10;30.30;;;;;;5017465;28;21182;-79
2023/06/11 10:49:50;;;;;;;3.20;2.90;;;37.90;30.00;;;;;;4999941;28;20650;-79
2023/06/11 10:52:16;;;;;;;4.57;2.97;;;37.80;30.20;;;;;;5015410;28;20677;-79
2023/06/11 10:54:43;;;;;;;3.47;2.23;;;37.70;30.20;;;;;;5015108;28;20665;-79
2023/06/11 10:57:09;;;;;;;3.47;2.83;;;37.70;30.50;;;;;;5032203;28;20230;-78
2023/06/11 10:59:36;;;;;;;3.40;2.63;;;37.70;30.90;;;;;;5032517;28;21482;-80
2023/06/11 11:02:02;;;;;;;3.47;3.17;;;37.90;30.90;;;;;;5008138;28;20286;-79
2023/06/11 11:04:28;;;;;;;4.90;3.10;;;37.80;30.20;;;;;;5019797;28;20632;-79
2023/06/11 11:07:11;;;;;;;5.03;3.30;;;37.40;30.30;;;;;;5004410;28;20591;-77
2023/06/11 11:09:37;;;;;;;4.13;3.43;;;36.90;30.20;;;;;;4982286;28;20543;-79
2023/06/11 11:12:03;;;;;;;3.60;3.00;;;36.80;30.70;;;;;;4995741;28;20586;-79
2023/06/11 11:14:30;;;;;;;3.30;2.73;;;36.40;30.70;;;;;;5013407;28;20220;-80
2023/06/11 11:17:00;;;;;;;3.30;2.50;;;36.20;30.80;;;;;;5014172;28;20599;-80
2023/06/11 11:19:27;;;;;;;2.50;2.30;;;36.10;30.90;;;;;;5031332;28;20565;-79
2023/06/11 11:21:53;;;;;;;2.60;2.40;;;36.00;31.00;;;;;;5013491;28;21100;-79
2023/06/11 11:24:19;;;;;;;7.40;2.70;;;36.00;31.30;;;;;;5027457;28;20605;-79
2023/06/11 11:26:45;;;;;;;3.33;2.93;;;36.00;31.50;;;;;;4995522;28;20170;-79
2023/06/11 11:29:12;;;;;;;3.30;3.00;;;36.10;31.20;;;;;;5011904;28;20621;-78
2023/06/11 11:31:39;;;;;;;4.60;3.20;;;36.30;31.30;;;;;;5022875;28;21266;-78
2023/06/11 11:34:05;;;;;;;2.90;2.60;;;36.30;30.90;;;;;;5027113;28;20628;-78
2023/06/11 11:36:31;;;;;;;3.67;2.40;;;36.30;31.20;;;;;;5005350;28;20611;-78
2023/06/11 11:39:08;;;;;;;3.80;3.50;;;36.20;31.20;;;;;;5012231;28;20819;-77
2023/06/11 11:41:50;;;;;;;3.20;2.90;;;36.30;31.40;;;;;;5012893;28;20584;-78
2023/06/11 11:44:16;;;;;;;3.43;3.07;;;36.30;31.40;;;;;;5012721;28;20663;-78
2023/06/11 11:46:43;;;;;;;2.93;2.63;;;36.40;31.50;;;;;;5032362;28;20571;-77
2023/06/11 11:49:10;;;;;;;3.80;2.63;;;36.30;31.40;;;;;;5016477;28;20578;-78
2023/06/11 11:51:40;;;;;;;2.93;2.67;;;36.20;31.10;;;;;;5033807;28;20560;-77
2023/06/11 11:54:07;;;;;;;3.47;2.80;;;36.00;31.10;;;;;;5016559;28;20616;-77
2023/06/11 11:56:33;;;;;;;4.30;2.67;;;35.90;31.20;;;;;;5016670;28;20572;-78
2023/06/11 11:58:59;;;;;;;3.37;2.80;;;35.80;31.50;;;;;;5007765;28;20716;-78
2023/06/11 12:01:32;;;;;;;5.80;3.30;;;35.50;31.50;;;;;;4996518;28;20639;-77
2023/06/11 12:04:02;;;;;;;4.10;3.70;;;35.40;31.50;;;;;;4982688;28;20218;-77
2023/06/11 12:06:29;;;;;;;3.00;2.37;;;35.30;31.80;;;;;;4982172;28;20675;-77
2023/06/11 12:08:55;;;;;;;3.57;3.10;;;35.30;32.10;;;;;;4963027;28;20669;-77
2023/06/11 12:11:20;;;;;;;2.93;2.73;;;35.30;32.20;;;;;;4998433;28;20721;-77
2023/06/11 12:13:46;;;;;;;3.83;3.53;;;35.30;32.50;;;;;;4999405;28;20536;-77
2023/06/11 12:16:14;;;;;;;3.60;2.63;;;35.40;32.60;;;;;;4963624;28;20254;-79
2023/06/11 12:18:40;;;;;;;4.63;3.00;;;35.40;32.60;;;;;;4995592;28;20713;-79
2023/06/11 12:21:07;;;;;;;4.80;2.90;;;35.50;32.50;;;;;;4978106;28;20605;-78
2023/06/11 12:23:33;;;;;;;3.80;2.97;;;35.50;32.20;;;;;;4977828;28;20215;-77
2023/06/11 12:26:00;;;;;;;4.50;3.57;;;35.30;32.30;;;;;;5012719;28;20593;-76
2023/06/11 12:28:26;;;;;;;4.07;3.00;;;35.30;32.40;;;;;;4998190;28;20660;-77
2023/06/11 12:30:52;;;;;;;3.80;2.90;;;35.10;32.50;;;;;;4964445;28;20680;-79
2023/06/11 12:33:18;;;;;;;3.90;2.87;;;34.90;32.10;;;;;;4997335;28;20263;-78
2023/06/11 12:35:44;;;;;;;3.60;3.20;;;34.80;31.90;;;;;;4967579;28;20573;-76
2023/06/11 12:38:10;;;;;;;3.77;3.10;;;34.70;32.00;;;;;;5036263;28;20251;-78
2023/06/11 12:40:37;;;;;;;5.00;3.77;;;34.50;32.00;;;;;;4985120;28;20169;-77
2023/06/11 12:43:03;;;;;;;4.97;3.63;;;34.40;32.80;;;;;;5016917;28;21213;-78
2023/06/11 12:45:32;;;;;;;6.30;4.30;;;34.10;32.10;;;;;;5017058;28;20587;-77
2023/06/11 12:47:58;;;;;;;3.60;3.30;;;33.90;32.30;;;;;;5033762;28;20675;-77
2023/06/11 12:50:24;;;;;;;4.00;3.27;;;33.80;32.30;;;;;;5015795;28;21025;-75